Ray City, Georgia
Current Conditions -  °F | °C
As of 1:58 PM on Monday 20 Oct 2014 (Local Time) from KVAD Reporting Station
Broken Clouds Broken Clouds  
Wind Chill: 78°   Ceiling: 3800
Heat Index: 80°   Visibility: 10mi
Dew Point: 62°   Wind: 1mph
Humidity: 57%   Direction: NA
Pressure: 30.02"   Gusts: NA
Location:  31.07°N, 83.2°W
Report Text: KVAD 201758Z AUTO VRB01KT 10SM BKN038 26/17 A3002 RMK AO2 SLP167 T02560165 10262 20122 57023 $
Loading
Personal Weather Stations






























Interactive Weather Map New forecast layout! Learn more

10-Day Weather Forecast

Advertisements
Track Severe Weather on mobile